sensor_id;sensor_type;location;lat;lon;timestamp;P1;durP1;ratioP1;P2;durP2;ratioP2
69523;SDS011;56723;42.694;23.286;2022-11-11T00:01:27;52.63;;;35.87;;
69523;SDS011;56723;42.694;23.286;2022-11-11T00:04:12;58.60;;;38.30;;
69523;SDS011;56723;42.694;23.286;2022-11-11T00:06:58;51.93;;;35.13;;
69523;SDS011;56723;42.694;23.286;2022-11-11T00:09:43;48.23;;;31.73;;
69523;SDS011;56723;42.694;23.286;2022-11-11T00:12:28;48.67;;;32.33;;
69523;SDS011;56723;42.694;23.286;2022-11-11T00:15:14;51.20;;;34.00;;
69523;SDS011;56723;42.694;23.286;2022-11-11T00:17:59;48.03;;;30.73;;
69523;SDS011;56723;42.694;23.286;2022-11-11T00:21:04;49.47;;;33.23;;
69523;SDS011;56723;42.694;23.286;2022-11-11T00:24:18;48.17;;;28.73;;
69523;SDS011;56723;42.694;23.286;2022-11-11T00:27:22;50.77;;;32.47;;
69523;SDS011;56723;42.694;23.286;2022-11-11T00:30:08;51.07;;;32.90;;
69523;SDS011;56723;42.694;23.286;2022-11-11T00:32:54;48.53;;;31.97;;
69523;SDS011;56723;42.694;23.286;2022-11-11T00:35:40;50.73;;;33.23;;
69523;SDS011;56723;42.694;23.286;2022-11-11T00:38:38;50.40;;;33.50;;
69523;SDS011;56723;42.694;23.286;2022-11-11T00:41:31;46.93;;;27.43;;
69523;SDS011;56723;42.694;23.286;2022-11-11T00:44:17;49.17;;;29.13;;
69523;SDS011;56723;42.694;23.286;2022-11-11T00:47:02;45.30;;;29.50;;
69523;SDS011;56723;42.694;23.286;2022-11-11T00:50:09;44.13;;;25.27;;
69523;SDS011;56723;42.694;23.286;2022-11-11T00:56:10;47.07;;;29.87;;
69523;SDS011;56723;42.694;23.286;2022-11-11T00:58:55;45.90;;;29.53;;
69523;SDS011;56723;42.694;23.286;2022-11-11T01:01:41;43.07;;;28.03;;
69523;SDS011;56723;42.694;23.286;2022-11-11T01:04:26;46.87;;;31.00;;
69523;SDS011;56723;42.694;23.286;2022-11-11T01:07:11;45.47;;;30.30;;
69523;SDS011;56723;42.694;23.286;2022-11-11T01:09:57;45.43;;;27.07;;
69523;SDS011;56723;42.694;23.286;2022-11-11T01:12:42;43.43;;;26.43;;
69523;SDS011;56723;42.694;23.286;2022-11-11T01:15:27;46.57;;;28.83;;
69523;SDS011;56723;42.694;23.286;2022-11-11T01:18:18;45.20;;;28.63;;
69523;SDS011;56723;42.694;23.286;2022-11-11T01:23:54;46.27;;;29.90;;
69523;SDS011;56723;42.694;23.286;2022-11-11T01:26:40;43.77;;;29.67;;
69523;SDS011;56723;42.694;23.286;2022-11-11T01:29:25;49.37;;;30.20;;
69523;SDS011;56723;42.694;23.286;2022-11-11T01:32:11;44.97;;;28.83;;
69523;SDS011;56723;42.694;23.286;2022-11-11T01:34:59;43.80;;;29.40;;
69523;SDS011;56723;42.694;23.286;2022-11-11T01:37:45;43.50;;;29.23;;
69523;SDS011;56723;42.694;23.286;2022-11-11T01:40:30;46.10;;;29.93;;
69523;SDS011;56723;42.694;23.286;2022-11-11T01:43:20;45.23;;;29.80;;
69523;SDS011;56723;42.694;23.286;2022-11-11T01:46:09;50.03;;;31.70;;
69523;SDS011;56723;42.694;23.286;2022-11-11T01:52:12;49.30;;;32.17;;
69523;SDS011;56723;42.694;23.286;2022-11-11T01:55:17;50.58;;;32.42;;
69523;SDS011;56723;42.694;23.286;2022-11-11T01:58:06;52.30;;;32.70;;
69523;SDS011;56723;42.694;23.286;2022-11-11T02:00:58;54.40;;;33.10;;
69523;SDS011;56723;42.694;23.286;2022-11-11T02:06:51;52.83;;;32.70;;
69523;SDS011;56723;42.694;23.286;2022-11-11T02:09:41;56.63;;;36.10;;
69523;SDS011;56723;42.694;23.286;2022-11-11T02:12:29;51.53;;;33.60;;
69523;SDS011;56723;42.694;23.286;2022-11-11T02:15:34;54.23;;;33.77;;
69523;SDS011;56723;42.694;23.286;2022-11-11T02:18:21;53.13;;;34.53;;
69523;SDS011;56723;42.694;23.286;2022-11-11T02:21:07;52.57;;;33.50;;
69523;SDS011;56723;42.694;23.286;2022-11-11T02:26:51;48.07;;;31.70;;
69523;SDS011;56723;42.694;23.286;2022-11-11T02:29:42;51.77;;;35.03;;
69523;SDS011;56723;42.694;23.286;2022-11-11T02:32:32;54.03;;;34.20;;
69523;SDS011;56723;42.694;23.286;2022-11-11T02:35:24;53.57;;;33.90;;
69523;SDS011;56723;42.694;23.286;2022-11-11T02:38:14;56.07;;;36.50;;
69523;SDS011;56723;42.694;23.286;2022-11-11T02:41:00;55.30;;;35.57;;
69523;SDS011;56723;42.694;23.286;2022-11-11T02:44:04;53.77;;;35.37;;
69523;SDS011;56723;42.694;23.286;2022-11-11T02:46:49;53.73;;;35.03;;
69523;SDS011;56723;42.694;23.286;2022-11-11T02:49:34;52.43;;;35.30;;
69523;SDS011;56723;42.694;23.286;2022-11-11T02:52:20;56.90;;;36.47;;
69523;SDS011;56723;42.694;23.286;2022-11-11T02:55:06;53.53;;;36.70;;
69523;SDS011;56723;42.694;23.286;2022-11-11T02:57:52;51.10;;;35.70;;
69523;SDS011;56723;42.694;23.286;2022-11-11T03:00:37;56.67;;;36.83;;
69523;SDS011;56723;42.694;23.286;2022-11-11T03:03:23;48.07;;;33.63;;
69523;SDS011;56723;42.694;23.286;2022-11-11T03:06:09;51.53;;;35.93;;
69523;SDS011;56723;42.694;23.286;2022-11-11T03:08:55;50.27;;;35.40;;
69523;SDS011;56723;42.694;23.286;2022-11-11T03:11:40;49.80;;;33.40;;
69523;SDS011;56723;42.694;23.286;2022-11-11T03:14:26;48.50;;;32.13;;
69523;SDS011;56723;42.694;23.286;2022-11-11T03:17:11;52.40;;;33.97;;
69523;SDS011;56723;42.694;23.286;2022-11-11T03:20:18;52.05;;;33.72;;
69523;SDS011;56723;42.694;23.286;2022-11-11T03:23:23;48.57;;;32.30;;
69523;SDS011;56723;42.694;23.286;2022-11-11T03:26:09;48.20;;;33.47;;
69523;SDS011;56723;42.694;23.286;2022-11-11T03:28:54;48.45;;;33.30;;
69523;SDS011;56723;42.694;23.286;2022-11-11T03:31:39;51.22;;;33.75;;
69523;SDS011;56723;42.694;23.286;2022-11-11T03:34:24;51.97;;;35.10;;
69523;SDS011;56723;42.694;23.286;2022-11-11T03:37:10;49.53;;;33.35;;
69523;SDS011;56723;42.694;23.286;2022-11-11T03:40:15;40.33;;;28.58;;
69523;SDS011;56723;42.694;23.286;2022-11-11T03:43:00;54.03;;;34.60;;
69523;SDS011;56723;42.694;23.286;2022-11-11T03:45:49;50.28;;;35.70;;
69523;SDS011;56723;42.694;23.286;2022-11-11T03:48:36;50.35;;;34.80;;
69523;SDS011;56723;42.694;23.286;2022-11-11T03:51:21;49.58;;;33.47;;
69523;SDS011;56723;42.694;23.286;2022-11-11T03:54:07;48.83;;;34.38;;
69523;SDS011;56723;42.694;23.286;2022-11-11T03:56:53;52.20;;;36.33;;
69523;SDS011;56723;42.694;23.286;2022-11-11T03:59:58;50.10;;;32.70;;
69523;SDS011;56723;42.694;23.286;2022-11-11T04:02:44;53.03;;;36.85;;
69523;SDS011;56723;42.694;23.286;2022-11-11T04:05:48;60.10;;;36.70;;
69523;SDS011;56723;42.694;23.286;2022-11-11T04:08:46;49.50;;;32.75;;
69523;SDS011;56723;42.694;23.286;2022-11-11T04:11:50;50.50;;;35.15;;
69523;SDS011;56723;42.694;23.286;2022-11-11T04:14:37;56.85;;;38.03;;
69523;SDS011;56723;42.694;23.286;2022-11-11T04:17:41;53.03;;;36.20;;
69523;SDS011;56723;42.694;23.286;2022-11-11T04:20:28;55.75;;;37.30;;
69523;SDS011;56723;42.694;23.286;2022-11-11T04:23:32;56.95;;;39.25;;
69523;SDS011;56723;42.694;23.286;2022-11-11T04:26:17;62.83;;;39.40;;
69523;SDS011;56723;42.694;23.286;2022-11-11T04:29:03;55.30;;;35.22;;
69523;SDS011;56723;42.694;23.286;2022-11-11T04:32:11;54.75;;;35.40;;
69523;SDS011;56723;42.694;23.286;2022-11-11T04:35:16;57.25;;;39.03;;
69523;SDS011;56723;42.694;23.286;2022-11-11T04:38:01;52.20;;;32.80;;
69523;SDS011;56723;42.694;23.286;2022-11-11T04:41:10;46.92;;;33.33;;
69523;SDS011;56723;42.694;23.286;2022-11-11T04:43:56;53.45;;;37.45;;
69523;SDS011;56723;42.694;23.286;2022-11-11T04:47:00;51.65;;;33.47;;
69523;SDS011;56723;42.694;23.286;2022-11-11T04:49:45;45.28;;;30.13;;
69523;SDS011;56723;42.694;23.286;2022-11-11T04:52:31;41.25;;;29.23;;
69523;SDS011;56723;42.694;23.286;2022-11-11T04:55:17;47.45;;;32.05;;
69523;SDS011;56723;42.694;23.286;2022-11-11T04:58:25;42.32;;;29.63;;
69523;SDS011;56723;42.694;23.286;2022-11-11T05:01:12;44.80;;;30.30;;
69523;SDS011;56723;42.694;23.286;2022-11-11T05:04:20;44.28;;;29.88;;
69523;SDS011;56723;42.694;23.286;2022-11-11T05:07:06;38.95;;;26.23;;
69523;SDS011;56723;42.694;23.286;2022-11-11T05:10:10;41.60;;;28.38;;
69523;SDS011;56723;42.694;23.286;2022-11-11T05:12:55;40.13;;;27.92;;
69523;SDS011;56723;42.694;23.286;2022-11-11T05:16:10;38.38;;;27.40;;
69523;SDS011;56723;42.694;23.286;2022-11-11T05:19:18;43.20;;;29.80;;
69523;SDS011;56723;42.694;23.286;2022-11-11T05:25:11;44.23;;;28.27;;
69523;SDS011;56723;42.694;23.286;2022-11-11T05:28:14;37.75;;;26.33;;
69523;SDS011;56723;42.694;23.286;2022-11-11T05:30:59;39.88;;;25.55;;
69523;SDS011;56723;42.694;23.286;2022-11-11T05:33:45;37.70;;;25.50;;
69523;SDS011;56723;42.694;23.286;2022-11-11T05:36:30;34.40;;;24.13;;
69523;SDS011;56723;42.694;23.286;2022-11-11T05:39:15;40.15;;;25.17;;
69523;SDS011;56723;42.694;23.286;2022-11-11T05:42:01;36.53;;;25.35;;
69523;SDS011;56723;42.694;23.286;2022-11-11T05:44:46;34.97;;;24.45;;
69523;SDS011;56723;42.694;23.286;2022-11-11T05:47:32;37.15;;;25.15;;
69523;SDS011;56723;42.694;23.286;2022-11-11T05:50:17;34.03;;;23.23;;
69523;SDS011;56723;42.694;23.286;2022-11-11T05:53:03;37.38;;;26.42;;
69523;SDS011;56723;42.694;23.286;2022-11-11T05:55:51;39.70;;;24.80;;
69523;SDS011;56723;42.694;23.286;2022-11-11T05:58:37;36.90;;;24.15;;
69523;SDS011;56723;42.694;23.286;2022-11-11T06:01:22;35.15;;;24.48;;
69523;SDS011;56723;42.694;23.286;2022-11-11T06:04:08;38.33;;;25.60;;
69523;SDS011;56723;42.694;23.286;2022-11-11T06:07:01;35.22;;;24.20;;
69523;SDS011;56723;42.694;23.286;2022-11-11T06:09:47;36.45;;;24.08;;
69523;SDS011;56723;42.694;23.286;2022-11-11T06:12:32;39.25;;;25.45;;
69523;SDS011;56723;42.694;23.286;2022-11-11T06:15:38;39.97;;;24.02;;
69523;SDS011;56723;42.694;23.286;2022-11-11T06:18:25;40.28;;;25.63;;
69523;SDS011;56723;42.694;23.286;2022-11-11T06:21:15;40.85;;;26.73;;
69523;SDS011;56723;42.694;23.286;2022-11-11T06:24:01;37.63;;;24.92;;
69523;SDS011;56723;42.694;23.286;2022-11-11T06:26:46;39.10;;;26.92;;
69523;SDS011;56723;42.694;23.286;2022-11-11T06:29:31;37.25;;;24.58;;
69523;SDS011;56723;42.694;23.286;2022-11-11T06:32:17;40.92;;;25.83;;
69523;SDS011;56723;42.694;23.286;2022-11-11T06:35:02;40.35;;;25.13;;
69523;SDS011;56723;42.694;23.286;2022-11-11T06:37:47;39.58;;;25.50;;
69523;SDS011;56723;42.694;23.286;2022-11-11T06:40:32;43.47;;;26.67;;
69523;SDS011;56723;42.694;23.286;2022-11-11T06:43:18;38.08;;;26.70;;
69523;SDS011;56723;42.694;23.286;2022-11-11T06:46:03;37.92;;;25.95;;
69523;SDS011;56723;42.694;23.286;2022-11-11T06:48:49;37.22;;;25.48;;
69523;SDS011;56723;42.694;23.286;2022-11-11T06:51:34;42.38;;;28.25;;
69523;SDS011;56723;42.694;23.286;2022-11-11T06:54:20;41.28;;;28.15;;
69523;SDS011;56723;42.694;23.286;2022-11-11T06:57:05;41.75;;;27.38;;
69523;SDS011;56723;42.694;23.286;2022-11-11T06:59:52;39.67;;;27.15;;
69523;SDS011;56723;42.694;23.286;2022-11-11T07:02:38;32.95;;;23.40;;
69523;SDS011;56723;42.694;23.286;2022-11-11T07:05:24;34.97;;;23.95;;
69523;SDS011;56723;42.694;23.286;2022-11-11T07:08:10;32.15;;;21.98;;
69523;SDS011;56723;42.694;23.286;2022-11-11T07:10:56;34.45;;;21.85;;
69523;SDS011;56723;42.694;23.286;2022-11-11T07:13:42;37.40;;;23.40;;
69523;SDS011;56723;42.694;23.286;2022-11-11T07:16:27;33.50;;;22.35;;
69523;SDS011;56723;42.694;23.286;2022-11-11T07:19:13;35.47;;;22.52;;
69523;SDS011;56723;42.694;23.286;2022-11-11T07:21:58;36.88;;;22.90;;
69523;SDS011;56723;42.694;23.286;2022-11-11T07:24:43;36.53;;;22.63;;
69523;SDS011;56723;42.694;23.286;2022-11-11T07:27:28;35.50;;;24.15;;
69523;SDS011;56723;42.694;23.286;2022-11-11T07:30:14;36.28;;;23.58;;
69523;SDS011;56723;42.694;23.286;2022-11-11T07:32:59;36.95;;;23.10;;
69523;SDS011;56723;42.694;23.286;2022-11-11T07:35:45;38.05;;;22.42;;
69523;SDS011;56723;42.694;23.286;2022-11-11T07:38:30;35.78;;;22.35;;
69523;SDS011;56723;42.694;23.286;2022-11-11T07:41:15;39.42;;;25.10;;
69523;SDS011;56723;42.694;23.286;2022-11-11T07:44:01;38.60;;;23.38;;
69523;SDS011;56723;42.694;23.286;2022-11-11T07:46:46;37.17;;;23.08;;
69523;SDS011;56723;42.694;23.286;2022-11-11T07:49:32;36.55;;;24.58;;
69523;SDS011;56723;42.694;23.286;2022-11-11T07:52:17;33.20;;;20.65;;
69523;SDS011;56723;42.694;23.286;2022-11-11T07:55:03;34.15;;;21.25;;
69523;SDS011;56723;42.694;23.286;2022-11-11T07:57:52;31.52;;;20.58;;
69523;SDS011;56723;42.694;23.286;2022-11-11T08:00:39;29.67;;;19.58;;
69523;SDS011;56723;42.694;23.286;2022-11-11T08:03:24;27.70;;;18.17;;
69523;SDS011;56723;42.694;23.286;2022-11-11T08:06:10;31.00;;;19.73;;
69523;SDS011;56723;42.694;23.286;2022-11-11T08:09:01;31.44;;;20.41;;
69523;SDS011;56723;42.694;23.286;2022-11-11T08:11:47;41.40;;;28.85;;
69523;SDS011;56723;42.694;23.286;2022-11-11T08:14:51;30.80;;;18.65;;
69523;SDS011;56723;42.694;23.286;2022-11-11T08:17:36;29.85;;;19.00;;
69523;SDS011;56723;42.694;23.286;2022-11-11T08:20:23;30.95;;;20.83;;
69523;SDS011;56723;42.694;23.286;2022-11-11T08:23:08;30.65;;;18.98;;
69523;SDS011;56723;42.694;23.286;2022-11-11T08:26:14;33.72;;;21.83;;
69523;SDS011;56723;42.694;23.286;2022-11-11T08:29:00;31.83;;;19.10;;
69523;SDS011;56723;42.694;23.286;2022-11-11T08:31:46;32.13;;;19.95;;
69523;SDS011;56723;42.694;23.286;2022-11-11T08:34:31;29.33;;;18.92;;
69523;SDS011;56723;42.694;23.286;2022-11-11T08:37:17;31.30;;;20.50;;
69523;SDS011;56723;42.694;23.286;2022-11-11T08:40:02;31.77;;;19.38;;
69523;SDS011;56723;42.694;23.286;2022-11-11T08:42:48;29.75;;;19.15;;
69523;SDS011;56723;42.694;23.286;2022-11-11T08:45:34;28.95;;;18.75;;
69523;SDS011;56723;42.694;23.286;2022-11-11T08:48:19;29.60;;;21.15;;
69523;SDS011;56723;42.694;23.286;2022-11-11T08:51:05;28.88;;;21.75;;
69523;SDS011;56723;42.694;23.286;2022-11-11T08:53:50;26.10;;;19.65;;
69523;SDS011;56723;42.694;23.286;2022-11-11T08:56:36;31.13;;;20.20;;
69523;SDS011;56723;42.694;23.286;2022-11-11T08:59:21;22.88;;;16.83;;
69523;SDS011;56723;42.694;23.286;2022-11-11T09:02:08;25.20;;;16.80;;
69523;SDS011;56723;42.694;23.286;2022-11-11T09:04:56;26.30;;;16.38;;
69523;SDS011;56723;42.694;23.286;2022-11-11T09:07:41;22.05;;;15.70;;
69523;SDS011;56723;42.694;23.286;2022-11-11T09:10:26;23.88;;;17.38;;
69523;SDS011;56723;42.694;23.286;2022-11-11T09:13:11;22.38;;;15.27;;
69523;SDS011;56723;42.694;23.286;2022-11-11T09:15:57;20.10;;;15.05;;
69523;SDS011;56723;42.694;23.286;2022-11-11T09:18:46;20.80;;;14.65;;
69523;SDS011;56723;42.694;23.286;2022-11-11T09:21:31;19.80;;;13.65;;
69523;SDS011;56723;42.694;23.286;2022-11-11T09:24:16;21.02;;;13.55;;
69523;SDS011;56723;42.694;23.286;2022-11-11T09:27:02;17.65;;;12.30;;
69523;SDS011;56723;42.694;23.286;2022-11-11T09:29:47;17.05;;;11.40;;
69523;SDS011;56723;42.694;23.286;2022-11-11T09:32:32;17.63;;;11.05;;
69523;SDS011;56723;42.694;23.286;2022-11-11T09:35:18;12.73;;;9.85;;
69523;SDS011;56723;42.694;23.286;2022-11-11T09:38:04;13.90;;;9.55;;
69523;SDS011;56723;42.694;23.286;2022-11-11T09:43:54;19.80;;;11.63;;
69523;SDS011;56723;42.694;23.286;2022-11-11T09:46:44;16.77;;;11.30;;
69523;SDS011;56723;42.694;23.286;2022-11-11T09:52:49;16.30;;;10.35;;
69523;SDS011;56723;42.694;23.286;2022-11-11T09:59:25;16.50;;;11.60;;
69523;SDS011;56723;42.694;23.286;2022-11-11T10:02:40;17.85;;;11.43;;
69523;SDS011;56723;42.694;23.286;2022-11-11T10:09:00;16.08;;;11.40;;
69523;SDS011;56723;42.694;23.286;2022-11-11T10:14:51;17.23;;;12.38;;
69523;SDS011;56723;42.694;23.286;2022-11-11T10:17:39;16.75;;;11.75;;
69523;SDS011;56723;42.694;23.286;2022-11-11T10:20:32;15.73;;;11.35;;
69523;SDS011;56723;42.694;23.286;2022-11-11T10:23:28;15.50;;;10.60;;
69523;SDS011;56723;42.694;23.286;2022-11-11T10:26:17;15.48;;;11.80;;
69523;SDS011;56723;42.694;23.286;2022-11-11T10:29:07;15.55;;;11.45;;
69523;SDS011;56723;42.694;23.286;2022-11-11T10:32:02;17.17;;;12.20;;
69523;SDS011;56723;42.694;23.286;2022-11-11T10:34:56;19.40;;;14.68;;
69523;SDS011;56723;42.694;23.286;2022-11-11T10:40:55;21.80;;;15.18;;
69523;SDS011;56723;42.694;23.286;2022-11-11T10:43:44;23.02;;;19.85;;
69523;SDS011;56723;42.694;23.286;2022-11-11T10:46:35;24.30;;;16.73;;
69523;SDS011;56723;42.694;23.286;2022-11-11T10:49:28;25.60;;;19.02;;
69523;SDS011;56723;42.694;23.286;2022-11-11T10:52:23;21.92;;;15.00;;
69523;SDS011;56723;42.694;23.286;2022-11-11T10:58:09;17.48;;;11.57;;
69523;SDS011;56723;42.694;23.286;2022-11-11T11:01:02;17.63;;;13.60;;
69523;SDS011;56723;42.694;23.286;2022-11-11T11:03:54;16.98;;;9.82;;
69523;SDS011;56723;42.694;23.286;2022-11-11T11:06:46;14.88;;;11.32;;
69523;SDS011;56723;42.694;23.286;2022-11-11T11:09:36;16.30;;;11.77;;
69523;SDS011;56723;42.694;23.286;2022-11-11T11:15:55;15.13;;;11.70;;
69523;SDS011;56723;42.694;23.286;2022-11-11T11:19:02;16.73;;;11.25;;
69523;SDS011;56723;42.694;23.286;2022-11-11T11:22:03;17.95;;;12.55;;
69523;SDS011;56723;42.694;23.286;2022-11-11T11:24:48;13.00;;;9.50;;
69523;SDS011;56723;42.694;23.286;2022-11-11T11:27:34;12.48;;;8.63;;
69523;SDS011;56723;42.694;23.286;2022-11-11T11:30:20;13.15;;;6.97;;
69523;SDS011;56723;42.694;23.286;2022-11-11T11:33:08;11.52;;;7.40;;
69523;SDS011;56723;42.694;23.286;2022-11-11T11:35:54;12.70;;;7.22;;
69523;SDS011;56723;42.694;23.286;2022-11-11T11:38:41;15.05;;;8.50;;
69523;SDS011;56723;42.694;23.286;2022-11-11T11:44:30;9.85;;;5.78;;
69523;SDS011;56723;42.694;23.286;2022-11-11T11:47:33;9.10;;;5.18;;
69523;SDS011;56723;42.694;23.286;2022-11-11T11:56:56;10.60;;;5.22;;
69523;SDS011;56723;42.694;23.286;2022-11-11T12:00:34;11.45;;;6.07;;
69523;SDS011;56723;42.694;23.286;2022-11-11T12:09:23;5.85;;;4.07;;
69523;SDS011;56723;42.694;23.286;2022-11-11T12:15:42;9.43;;;4.97;;
69523;SDS011;56723;42.694;23.286;2022-11-11T12:19:05;7.93;;;5.15;;
69523;SDS011;56723;42.694;23.286;2022-11-11T12:21:57;8.10;;;4.88;;
69523;SDS011;56723;42.694;23.286;2022-11-11T12:28:14;10.77;;;7.70;;
69523;SDS011;56723;42.694;23.286;2022-11-11T12:37:09;10.48;;;7.00;;
69523;SDS011;56723;42.694;23.286;2022-11-11T12:46:28;14.82;;;7.38;;
69523;SDS011;56723;42.694;23.286;2022-11-11T12:58:12;9.88;;;5.18;;
69523;SDS011;56723;42.694;23.286;2022-11-11T13:16:29;9.23;;;4.80;;
69523;SDS011;56723;42.694;23.286;2022-11-11T13:19:19;6.95;;;4.90;;
69523;SDS011;56723;42.694;23.286;2022-11-11T13:22:26;8.02;;;4.93;;
69523;SDS011;56723;42.694;23.286;2022-11-11T13:25:15;12.38;;;7.68;;
69523;SDS011;56723;42.694;23.286;2022-11-11T13:28:22;8.00;;;5.32;;
69523;SDS011;56723;42.694;23.286;2022-11-11T13:31:35;9.60;;;6.10;;
69523;SDS011;56723;42.694;23.286;2022-11-11T13:34:23;10.43;;;5.60;;
69523;SDS011;56723;42.694;23.286;2022-11-11T13:37:44;11.50;;;6.00;;
69523;SDS011;56723;42.694;23.286;2022-11-11T13:43:19;14.90;;;6.45;;
69523;SDS011;56723;42.694;23.286;2022-11-11T13:49:29;10.25;;;5.68;;
69523;SDS011;56723;42.694;23.286;2022-11-11T13:52:22;9.57;;;5.10;;
69523;SDS011;56723;42.694;23.286;2022-11-11T13:58:19;9.55;;;5.38;;
69523;SDS011;56723;42.694;23.286;2022-11-11T14:01:09;8.38;;;5.60;;
69523;SDS011;56723;42.694;23.286;2022-11-11T14:03:59;11.18;;;5.68;;
69523;SDS011;56723;42.694;23.286;2022-11-11T14:09:52;12.05;;;6.60;;
69523;SDS011;56723;42.694;23.286;2022-11-11T14:12:49;10.55;;;6.07;;
69523;SDS011;56723;42.694;23.286;2022-11-11T14:15:43;10.77;;;6.00;;
69523;SDS011;56723;42.694;23.286;2022-11-11T14:24:46;13.77;;;6.07;;
69523;SDS011;56723;42.694;23.286;2022-11-11T14:27:31;10.48;;;6.00;;
69523;SDS011;56723;42.694;23.286;2022-11-11T14:33:38;12.13;;;6.90;;
69523;SDS011;56723;42.694;23.286;2022-11-11T14:51:50;14.30;;;9.98;;
69523;SDS011;56723;42.694;23.286;2022-11-11T14:57:48;13.18;;;9.18;;
69523;SDS011;56723;42.694;23.286;2022-11-11T15:03:47;22.65;;;14.07;;
69523;SDS011;56723;42.694;23.286;2022-11-11T15:09:41;20.13;;;12.63;;
69523;SDS011;56723;42.694;23.286;2022-11-11T15:27:37;22.05;;;11.35;;
69523;SDS011;56723;42.694;23.286;2022-11-11T15:30:34;39.30;;;28.30;;
69523;SDS011;56723;42.694;23.286;2022-11-11T15:33:39;29.77;;;19.55;;
69523;SDS011;56723;42.694;23.286;2022-11-11T15:36:51;21.25;;;12.60;;
69523;SDS011;56723;42.694;23.286;2022-11-11T15:39:51;18.98;;;10.88;;
69523;SDS011;56723;42.694;23.286;2022-11-11T17:35:50;26.77;;;16.88;;
69523;SDS011;56723;42.694;23.286;2022-11-11T17:38:36;26.10;;;16.50;;
69523;SDS011;56723;42.694;23.286;2022-11-11T17:41:22;27.80;;;18.90;;
69523;SDS011;56723;42.694;23.286;2022-11-11T17:44:07;25.73;;;15.93;;
69523;SDS011;56723;42.694;23.286;2022-11-11T17:46:53;29.20;;;17.35;;
69523;SDS011;56723;42.694;23.286;2022-11-11T17:49:38;28.38;;;17.55;;
69523;SDS011;56723;42.694;23.286;2022-11-11T17:52:40;25.80;;;17.40;;
69523;SDS011;56723;42.694;23.286;2022-11-11T17:55:26;27.30;;;17.00;;
69523;SDS011;56723;42.694;23.286;2022-11-11T17:58:12;26.88;;;18.10;;
69523;SDS011;56723;42.694;23.286;2022-11-11T18:01:05;28.17;;;18.48;;
69523;SDS011;56723;42.694;23.286;2022-11-11T18:03:56;30.73;;;20.20;;
69523;SDS011;56723;42.694;23.286;2022-11-11T18:06:42;31.58;;;20.48;;
69523;SDS011;56723;42.694;23.286;2022-11-11T18:09:27;32.30;;;21.58;;
69523;SDS011;56723;42.694;23.286;2022-11-11T18:12:13;32.20;;;22.38;;
69523;SDS011;56723;42.694;23.286;2022-11-11T18:14:58;32.85;;;22.00;;
69523;SDS011;56723;42.694;23.286;2022-11-11T21:59:56;42.97;;;27.40;;
69523;SDS011;56723;42.694;23.286;2022-11-11T22:02:41;42.37;;;25.83;;
69523;SDS011;56723;42.694;23.286;2022-11-11T22:05:27;41.47;;;27.23;;
69523;SDS011;56723;42.694;23.286;2022-11-11T22:08:12;43.90;;;28.43;;
69523;SDS011;56723;42.694;23.286;2022-11-11T22:11:31;43.97;;;28.57;;
69523;SDS011;56723;42.694;23.286;2022-11-11T22:14:10;41.87;;;26.03;;
69523;SDS011;56723;42.694;23.286;2022-11-11T22:16:56;42.17;;;26.37;;
69523;SDS011;56723;42.694;23.286;2022-11-11T22:19:41;42.33;;;27.60;;
69523;SDS011;56723;42.694;23.286;2022-11-11T22:22:26;48.23;;;29.50;;
69523;SDS011;56723;42.694;23.286;2022-11-11T22:25:12;47.57;;;30.43;;
69523;SDS011;56723;42.694;23.286;2022-11-11T22:27:57;45.80;;;29.53;;
69523;SDS011;56723;42.694;23.286;2022-11-11T22:30:42;47.53;;;27.13;;
69523;SDS011;56723;42.694;23.286;2022-11-11T22:33:28;44.67;;;29.20;;
